sensor_id;sensor_type;location;lat;lon;timestamp;pressure;altitude;pressure_sealevel;temperature;humidity
19777;BME280;10047;42.490;26.012;2023-03-29T00:02:24;99733.09;;;5.07;100.00
19777;BME280;10047;42.490;26.012;2023-03-29T00:04:55;99771.50;;;5.27;100.00
19777;BME280;10047;42.490;26.012;2023-03-29T00:07:21;99754.44;;;5.49;100.00
19777;BME280;10047;42.490;26.012;2023-03-29T00:09:48;99762.13;;;5.40;100.00
19777;BME280;10047;42.490;26.012;2023-03-29T00:12:14;99768.03;;;5.37;100.00
19777;BME280;10047;42.490;26.012;2023-03-29T00:14:39;99762.00;;;5.49;100.00
19777;BME280;10047;42.490;26.012;2023-03-29T00:17:05;99781.38;;;5.47;100.00
19777;BME280;10047;42.490;26.012;2023-03-29T00:19:32;99786.63;;;5.25;100.00
19777;BME280;10047;42.490;26.012;2023-03-29T00:22:02;99784.91;;;5.29;100.00
19777;BME280;10047;42.490;26.012;2023-03-29T00:24:30;99829.31;;;5.42;100.00
19777;BME280;10047;42.490;26.012;2023-03-29T00:26:55;99834.50;;;5.25;100.00
19777;BME280;10047;42.490;26.012;2023-03-29T00:29:20;99845.25;;;5.46;100.00
19777;BME280;10047;42.490;26.012;2023-03-29T00:31:46;99842.94;;;5.24;100.00
19777;BME280;10047;42.490;26.012;2023-03-29T00:34:27;99864.69;;;5.35;100.00
19777;BME280;10047;42.490;26.012;2023-03-29T00:36:56;99782.94;;;4.70;100.00
19777;BME280;10047;42.490;26.012;2023-03-29T00:39:24;99857.06;;;5.41;100.00
19777;BME280;10047;42.490;26.012;2023-03-29T00:41:49;99847.31;;;5.03;100.00
19777;BME280;10047;42.490;26.012;2023-03-29T00:47:25;99777.94;;;4.67;100.00
19777;BME280;10047;42.490;26.012;2023-03-29T00:49:52;99823.00;;;4.96;100.00
19777;BME280;10047;42.490;26.012;2023-03-29T00:52:19;99743.53;;;4.62;100.00
19777;BME280;10047;42.490;26.012;2023-03-29T00:54:51;99787.72;;;4.97;100.00
19777;BME280;10047;42.490;26.012;2023-03-29T00:57:17;99732.59;;;4.66;100.00
19777;BME280;10047;42.490;26.012;2023-03-29T00:59:45;99781.09;;;4.89;100.00
19777;BME280;10047;42.490;26.012;2023-03-29T01:02:14;99734.31;;;4.62;100.00
19777;BME280;10047;42.490;26.012;2023-03-29T01:04:50;99706.66;;;4.58;100.00
19777;BME280;10047;42.490;26.012;2023-03-29T01:07:22;99742.59;;;4.76;100.00
19777;BME280;10047;42.490;26.012;2023-03-29T01:10:04;99644.88;;;4.26;100.00
19777;BME280;10047;42.490;26.012;2023-03-29T01:12:36;99709.03;;;4.77;100.00
19777;BME280;10047;42.490;26.012;2023-03-29T01:15:11;99673.69;;;4.83;100.00
19777;BME280;10047;42.490;26.012;2023-03-29T01:17:39;99639.41;;;4.73;100.00
19777;BME280;10047;42.490;26.012;2023-03-29T01:20:11;99592.78;;;4.39;100.00
19777;BME280;10047;42.490;26.012;2023-03-29T01:28:14;99617.13;;;4.37;100.00
19777;BME280;10047;42.490;26.012;2023-03-29T01:33:22;99586.19;;;4.27;100.00
19777;BME280;10047;42.490;26.012;2023-03-29T01:37:02;99596.13;;;4.39;100.00
19777;BME280;10047;42.490;26.012;2023-03-29T01:38:56;99594.59;;;4.25;100.00
19777;BME280;10047;42.490;26.012;2023-03-29T01:44:20;99662.41;;;4.37;100.00
19777;BME280;10047;42.490;26.012;2023-03-29T01:47:02;99681.81;;;4.18;100.00
19777;BME280;10047;42.490;26.012;2023-03-29T01:49:36;99771.28;;;4.57;100.00
19777;BME280;10047;42.490;26.012;2023-03-29T01:52:16;99762.22;;;4.30;100.00
19777;BME280;10047;42.490;26.012;2023-03-29T01:55:01;99823.34;;;4.49;100.00
19777;BME280;10047;42.490;26.012;2023-03-29T01:57:29;99818.31;;;4.49;100.00
19777;BME280;10047;42.490;26.012;2023-03-29T01:59:56;99826.72;;;4.42;100.00
19777;BME280;10047;42.490;26.012;2023-03-29T02:02:23;99829.41;;;4.15;100.00
19777;BME280;10047;42.490;26.012;2023-03-29T02:04:52;99769.84;;;4.20;100.00
19777;BME280;10047;42.490;26.012;2023-03-29T02:07:22;99784.88;;;4.33;100.00
19777;BME280;10047;42.490;26.012;2023-03-29T02:09:50;99882.03;;;4.53;100.00
19777;BME280;10047;42.490;26.012;2023-03-29T02:12:18;99840.34;;;4.05;100.00
19777;BME280;10047;42.490;26.012;2023-03-29T02:14:44;99833.53;;;4.22;100.00
19777;BME280;10047;42.490;26.012;2023-03-29T02:17:22;99846.25;;;3.99;100.00
19777;BME280;10047;42.490;26.012;2023-03-29T02:19:57;99896.44;;;4.25;100.00
19777;BME280;10047;42.490;26.012;2023-03-29T02:22:31;99867.19;;;4.00;100.00
19777;BME280;10047;42.490;26.012;2023-03-29T02:25:00;99867.19;;;3.97;100.00
19777;BME280;10047;42.490;26.012;2023-03-29T02:27:27;99941.69;;;4.31;100.00
19777;BME280;10047;42.490;26.012;2023-03-29T02:29:53;99905.72;;;4.14;100.00
19777;BME280;10047;42.490;26.012;2023-03-29T02:34:59;99916.69;;;3.84;100.00
19777;BME280;10047;42.490;26.012;2023-03-29T02:37:28;99974.41;;;4.35;100.00
19777;BME280;10047;42.490;26.012;2023-03-29T02:39:56;99975.19;;;4.47;100.00
19777;BME280;10047;42.490;26.012;2023-03-29T02:42:24;99969.34;;;4.38;100.00
19777;BME280;10047;42.490;26.012;2023-03-29T02:44:57;99991.22;;;4.15;100.00
19777;BME280;10047;42.490;26.012;2023-03-29T02:47:32;99976.09;;;4.24;100.00
19777;BME280;10047;42.490;26.012;2023-03-29T02:50:01;100012.16;;;4.23;100.00
19777;BME280;10047;42.490;26.012;2023-03-29T02:52:31;100012.13;;;4.42;100.00
19777;BME280;10047;42.490;26.012;2023-03-29T02:54:59;99984.53;;;4.05;100.00
19777;BME280;10047;42.490;26.012;2023-03-29T02:57:27;100039.00;;;4.27;100.00
19777;BME280;10047;42.490;26.012;2023-03-29T02:59:54;100004.66;;;3.95;100.00
19777;BME280;10047;42.490;26.012;2023-03-29T03:02:22;100046.53;;;4.30;100.00
19777;BME280;10047;42.490;26.012;2023-03-29T03:04:50;100004.66;;;4.04;100.00
19777;BME280;10047;42.490;26.012;2023-03-29T03:07:16;100052.44;;;4.05;100.00
19777;BME280;10047;42.490;26.012;2023-03-29T03:09:41;100011.34;;;3.94;100.00
19777;BME280;10047;42.490;26.012;2023-03-29T03:12:07;100054.94;;;4.10;100.00
19777;BME280;10047;42.490;26.012;2023-03-29T03:14:33;99984.56;;;3.56;100.00
19777;BME280;10047;42.490;26.012;2023-03-29T03:16:58;100028.94;;;4.05;100.00
19777;BME280;10047;42.490;26.012;2023-03-29T03:19:24;100008.03;;;3.70;100.00
19777;BME280;10047;42.490;26.012;2023-03-29T03:21:50;100040.69;;;4.01;100.00
19777;BME280;10047;42.490;26.012;2023-03-29T03:24:15;100118.66;;;4.31;100.00
19777;BME280;10047;42.490;26.012;2023-03-29T03:26:42;100098.53;;;4.03;100.00
19777;BME280;10047;42.490;26.012;2023-03-29T03:29:11;100114.44;;;4.12;100.00
19777;BME280;10047;42.490;26.012;2023-03-29T03:31:36;100073.41;;;3.80;100.00
19777;BME280;10047;42.490;26.012;2023-03-29T03:34:08;100096.84;;;3.93;100.00
19777;BME280;10047;42.490;26.012;2023-03-29T03:36:34;100050.75;;;4.12;100.00
19777;BME280;10047;42.490;26.012;2023-03-29T03:39:00;100114.44;;;3.78;100.00
19777;BME280;10047;42.490;26.012;2023-03-29T03:41:27;100079.16;;;4.62;100.00
19777;BME280;10047;42.490;26.012;2023-03-29T03:43:52;100105.22;;;3.86;100.00
19777;BME280;10047;42.490;26.012;2023-03-29T03:46:18;100075.03;;;3.77;100.00
19777;BME280;10047;42.490;26.012;2023-03-29T03:48:45;100052.22;;;4.85;100.00
19777;BME280;10047;42.490;26.012;2023-03-29T03:51:11;100056.63;;;3.78;100.00
19777;BME280;10047;42.490;26.012;2023-03-29T03:53:37;100111.09;;;3.98;100.00
19777;BME280;10047;42.490;26.012;2023-03-29T03:56:02;100082.59;;;3.60;100.00
19777;BME280;10047;42.490;26.012;2023-03-29T03:58:34;100118.63;;;3.76;100.00
19777;BME280;10047;42.490;26.012;2023-03-29T04:00:59;100123.66;;;3.79;100.00
19777;BME280;10047;42.490;26.012;2023-03-29T04:03:25;100122.84;;;3.78;100.00
19777;BME280;10047;42.490;26.012;2023-03-29T04:05:51;100122.78;;;3.69;100.00
19777;BME280;10047;42.490;26.012;2023-03-29T04:08:16;99912.91;;;4.82;100.00
19777;BME280;10047;42.490;26.012;2023-03-29T04:10:50;99933.41;;;4.02;100.00
19777;BME280;10047;42.490;26.012;2023-03-29T04:13:17;99998.81;;;3.53;100.00
19777;BME280;10047;42.490;26.012;2023-03-29T04:15:42;100059.94;;;3.63;100.00
19777;BME280;10047;42.490;26.012;2023-03-29T04:18:10;100013.88;;;3.57;100.00
19777;BME280;10047;42.490;26.012;2023-03-29T04:20:36;100030.66;;;3.68;100.00
19777;BME280;10047;42.490;26.012;2023-03-29T04:23:02;100064.16;;;3.88;100.00
19777;BME280;10047;42.490;26.012;2023-03-29T04:25:28;100065.84;;;3.83;100.00
19777;BME280;10047;42.490;26.012;2023-03-29T04:27:53;100044.06;;;3.78;100.00
19777;BME280;10047;42.490;26.012;2023-03-29T04:30:19;100025.63;;;3.70;100.00
19777;BME280;10047;42.490;26.012;2023-03-29T04:32:45;100018.06;;;3.47;100.00
19777;BME280;10047;42.490;26.012;2023-03-29T04:35:11;100013.06;;;3.56;100.00
19777;BME280;10047;42.490;26.012;2023-03-29T04:37:36;100041.50;;;4.17;100.00
19777;BME280;10047;42.490;26.012;2023-03-29T04:40:05;100029.81;;;3.92;100.00
19777;BME280;10047;42.490;26.012;2023-03-29T04:42:34;100024.78;;;3.86;100.00
19777;BME280;10047;42.490;26.012;2023-03-29T04:44:59;100090.97;;;4.24;100.00
19777;BME280;10047;42.490;26.012;2023-03-29T04:47:25;99992.72;;;4.69;100.00
19777;BME280;10047;42.490;26.012;2023-03-29T04:49:54;99977.72;;;5.78;100.00
19777;BME280;10047;42.490;26.012;2023-03-29T04:52:20;99971.50;;;5.12;100.00
19777;BME280;10047;42.490;26.012;2023-03-29T04:54:46;100059.94;;;4.28;100.00
19777;BME280;10047;42.490;26.012;2023-03-29T04:57:11;99993.75;;;3.81;100.00
19777;BME280;10047;42.490;26.012;2023-03-29T04:59:37;100107.75;;;4.10;100.00
19777;BME280;10047;42.490;26.012;2023-03-29T05:02:03;100102.72;;;4.26;100.00
19777;BME280;10047;42.490;26.012;2023-03-29T05:04:29;100121.16;;;4.40;100.00
19777;BME280;10047;42.490;26.012;2023-03-29T05:06:55;100133.75;;;4.33;100.00
19777;BME280;10047;42.490;26.012;2023-03-29T05:09:22;100077.56;;;4.25;100.00
19777;BME280;10047;42.490;26.012;2023-03-29T05:11:48;100147.97;;;4.54;100.00
19777;BME280;10047;42.490;26.012;2023-03-29T05:14:13;100153.88;;;4.53;100.00
19777;BME280;10047;42.490;26.012;2023-03-29T05:16:39;100103.56;;;4.21;100.00
19777;BME280;10047;42.490;26.012;2023-03-29T05:19:07;100087.63;;;4.29;100.00
19777;BME280;10047;42.490;26.012;2023-03-29T05:21:35;100150.44;;;4.85;100.00
19777;BME280;10047;42.490;26.012;2023-03-29T05:24:01;100152.97;;;4.78;100.00
19777;BME280;10047;42.490;26.012;2023-03-29T05:26:27;100115.19;;;4.88;100.00
19777;BME280;10047;42.490;26.012;2023-03-29T05:28:52;100147.09;;;4.80;100.00
19777;BME280;10047;42.490;26.012;2023-03-29T05:31:18;100147.06;;;4.98;100.00
19777;BME280;10047;42.490;26.012;2023-03-29T05:33:45;100150.41;;;5.06;100.00
19777;BME280;10047;42.490;26.012;2023-03-29T05:36:13;100215.56;;;5.95;100.00
19777;BME280;10047;42.490;26.012;2023-03-29T05:38:41;100194.81;;;5.35;100.00
19777;BME280;10047;42.490;26.012;2023-03-29T05:41:07;100265.25;;;5.78;100.00
19777;BME280;10047;42.490;26.012;2023-03-29T05:43:33;100254.28;;;5.81;100.00
19777;BME280;10047;42.490;26.012;2023-03-29T05:45:59;100322.38;;;5.96;100.00
19777;BME280;10047;42.490;26.012;2023-03-29T05:48:25;100348.47;;;5.80;100.00
19777;BME280;10047;42.490;26.012;2023-03-29T05:50:53;100347.59;;;6.03;100.00
19777;BME280;10047;42.490;26.012;2023-03-29T05:53:22;100348.31;;;6.27;100.00
19777;BME280;10047;42.490;26.012;2023-03-29T05:55:48;100318.28;;;5.56;100.00
19777;BME280;10047;42.490;26.012;2023-03-29T05:58:13;100368.66;;;5.93;100.00
19777;BME280;10047;42.490;26.012;2023-03-29T06:00:40;100372.03;;;5.89;100.00
19777;BME280;10047;42.490;26.012;2023-03-29T06:03:06;100388.75;;;6.19;100.00
19777;BME280;10047;42.490;26.012;2023-03-29T06:05:35;100304.69;;;5.99;100.00
19777;BME280;10047;42.490;26.012;2023-03-29T06:08:02;100359.34;;;6.04;100.00
19777;BME280;10047;42.490;26.012;2023-03-29T06:10:27;100420.63;;;6.38;100.00
19777;BME280;10047;42.490;26.012;2023-03-29T06:12:53;100426.22;;;6.96;100.00
19777;BME280;10047;42.490;26.012;2023-03-29T06:15:18;100385.34;;;6.29;100.00
19777;BME280;10047;42.490;26.012;2023-03-29T06:17:45;100376.84;;;6.45;100.00
19777;BME280;10047;42.490;26.012;2023-03-29T06:20:12;100447.47;;;6.63;100.00
19777;BME280;10047;42.490;26.012;2023-03-29T06:22:38;100447.47;;;6.69;100.00
19777;BME280;10047;42.490;26.012;2023-03-29T06:25:04;100462.59;;;6.66;100.00
19777;BME280;10047;42.490;26.012;2023-03-29T06:27:30;100465.09;;;6.78;100.00
19777;BME280;10047;42.490;26.012;2023-03-29T06:29:57;100467.94;;;7.57;100.00
19777;BME280;10047;42.490;26.012;2023-03-29T06:32:22;100407.81;;;6.77;100.00
19777;BME280;10047;42.490;26.012;2023-03-29T06:34:48;100462.31;;;7.18;100.00
19777;BME280;10047;42.490;26.012;2023-03-29T06:37:13;100445.69;;;6.80;100.00
19777;BME280;10047;42.490;26.012;2023-03-29T06:39:39;100445.59;;;7.03;100.00
19777;BME280;10047;42.490;26.012;2023-03-29T06:42:05;100480.53;;;7.63;100.00
19777;BME280;10047;42.490;26.012;2023-03-29T06:44:31;100451.53;;;6.91;100.00
19777;BME280;10047;42.490;26.012;2023-03-29T06:46:56;100461.75;;;6.69;100.00
19777;BME280;10047;42.490;26.012;2023-03-29T06:49:22;100512.09;;;7.10;100.00
19777;BME280;10047;42.490;26.012;2023-03-29T06:51:47;100518.66;;;7.38;100.00
19777;BME280;10047;42.490;26.012;2023-03-29T06:54:13;100519.38;;;7.58;100.00
19777;BME280;10047;42.490;26.012;2023-03-29T06:56:38;100502.59;;;8.42;100.00
19777;BME280;10047;42.490;26.012;2023-03-29T06:59:04;100485.97;;;8.12;100.00
19777;BME280;10047;42.490;26.012;2023-03-29T07:01:30;100515.97;;;7.59;100.00
19777;BME280;10047;42.490;26.012;2023-03-29T07:03:55;100472.22;;;7.48;100.00
19777;BME280;10047;42.490;26.012;2023-03-29T07:06:21;100508.91;;;7.97;100.00
19777;BME280;10047;42.490;26.012;2023-03-29T07:08:48;100512.91;;;8.21;100.00
19777;BME280;10047;42.490;26.012;2023-03-29T07:11:16;100473.69;;;8.58;100.00
19777;BME280;10047;42.490;26.012;2023-03-29T07:13:43;100516.59;;;8.71;100.00
19777;BME280;10047;42.490;26.012;2023-03-29T07:16:10;100503.75;;;8.09;100.00
19777;BME280;10047;42.490;26.012;2023-03-29T07:18:40;100554.97;;;7.31;100.00
19777;BME280;10047;42.490;26.012;2023-03-29T07:21:06;100560.22;;;6.82;100.00
19777;BME280;10047;42.490;26.012;2023-03-29T07:23:32;100528.09;;;7.15;100.00
19777;BME280;10047;42.490;26.012;2023-03-29T07:25:58;100541.00;;;7.95;100.00
19777;BME280;10047;42.490;26.012;2023-03-29T07:28:23;100510.59;;;6.75;100.00
19777;BME280;10047;42.490;26.012;2023-03-29T07:30:49;100509.88;;;6.30;100.00
19777;BME280;10047;42.490;26.012;2023-03-29T07:33:15;100550.66;;;7.46;100.00
19777;BME280;10047;42.490;26.012;2023-03-29T07:35:41;100510.03;;;7.66;100.00
19777;BME280;10047;42.490;26.012;2023-03-29T07:38:08;100561.34;;;7.83;100.00
19777;BME280;10047;42.490;26.012;2023-03-29T07:40:33;100579.44;;;7.20;100.00
19777;BME280;10047;42.490;26.012;2023-03-29T07:42:59;100488.69;;;6.68;100.00
19777;BME280;10047;42.490;26.012;2023-03-29T07:45:26;100585.47;;;6.91;100.00
19777;BME280;10047;42.490;26.012;2023-03-29T07:47:54;100545.09;;;6.76;100.00
19777;BME280;10047;42.490;26.012;2023-03-29T07:50:21;100529.72;;;7.17;100.00
19777;BME280;10047;42.490;26.012;2023-03-29T07:52:46;100532.22;;;7.26;100.00
19777;BME280;10047;42.490;26.012;2023-03-29T07:55:13;100582.69;;;8.56;100.00
19777;BME280;10047;42.490;26.012;2023-03-29T07:57:39;100591.47;;;8.15;100.00
19777;BME280;10047;42.490;26.012;2023-03-29T08:00:06;100588.13;;;8.98;100.00
19777;BME280;10047;42.490;26.012;2023-03-29T08:02:45;100579.84;;;8.82;100.00
19777;BME280;10047;42.490;26.012;2023-03-29T08:05:13;100615.91;;;8.25;100.00
19777;BME280;10047;42.490;26.012;2023-03-29T08:07:40;100531.66;;;8.87;100.00
19777;BME280;10047;42.490;26.012;2023-03-29T08:10:15;100537.94;;;8.55;100.00
19777;BME280;10047;42.490;26.012;2023-03-29T08:12:41;100579.81;;;9.52;100.00
19777;BME280;10047;42.490;26.012;2023-03-29T08:15:08;100611.91;;;8.89;100.00
19777;BME280;10047;42.490;26.012;2023-03-29T08:17:34;100630.03;;;8.48;100.00
19777;BME280;10047;42.490;26.012;2023-03-29T08:20:00;100614.16;;;9.12;100.00
19777;BME280;10047;42.490;26.012;2023-03-29T08:22:26;100541.28;;;8.57;100.00
19777;BME280;10047;42.490;26.012;2023-03-29T08:24:53;100577.66;;;8.52;100.00
19777;BME280;10047;42.490;26.012;2023-03-29T08:27:18;100585.91;;;7.70;100.00
19777;BME280;10047;42.490;26.012;2023-03-29T08:29:44;100625.38;;;9.63;100.00
19777;BME280;10047;42.490;26.012;2023-03-29T08:32:10;100574.63;;;8.96;100.00
19777;BME280;10047;42.490;26.012;2023-03-29T08:34:35;100597.50;;;8.02;100.00
19777;BME280;10047;42.490;26.012;2023-03-29T08:37:01;100599.16;;;8.03;100.00
19777;BME280;10047;42.490;26.012;2023-03-29T08:39:27;100634.09;;;8.67;100.00
19777;BME280;10047;42.490;26.012;2023-03-29T08:49:36;100628.31;;;9.92;100.00
19777;BME280;10047;42.490;26.012;2023-03-29T08:52:05;100605.66;;;9.80;100.00
19777;BME280;10047;42.490;26.012;2023-03-29T08:54:42;100625.47;;;9.53;100.00
19777;BME280;10047;42.490;26.012;2023-03-29T08:57:22;100661.03;;;9.52;100.00
19777;BME280;10047;42.490;26.012;2023-03-29T08:59:52;100637.09;;;9.03;100.00
19777;BME280;10047;42.490;26.012;2023-03-29T09:02:23;100595.34;;;9.90;100.00
19777;BME280;10047;42.490;26.012;2023-03-29T09:04:51;100659.31;;;9.54;100.00
19777;BME280;10047;42.490;26.012;2023-03-29T09:07:18;100674.22;;;10.37;100.00
19777;BME280;10047;42.490;26.012;2023-03-29T09:09:44;100638.00;;;8.96;100.00
19777;BME280;10047;42.490;26.012;2023-03-29T09:15:08;100638.88;;;9.63;100.00
19777;BME280;10047;42.490;26.012;2023-03-29T09:25:47;100682.59;;;10.42;100.00
19777;BME280;10047;42.490;26.012;2023-03-29T09:28:43;100694.94;;;10.09;98.16
19777;BME280;10047;42.490;26.012;2023-03-29T09:31:23;100654.03;;;9.69;93.88
19777;BME280;10047;42.490;26.012;2023-03-29T09:33:56;100639.88;;;10.12;96.31
19777;BME280;10047;42.490;26.012;2023-03-29T09:39:02;100618.81;;;10.56;94.55
19777;BME280;10047;42.490;26.012;2023-03-29T09:41:35;100675.25;;;10.76;97.21
19777;BME280;10047;42.490;26.012;2023-03-29T09:44:09;100664.81;;;11.34;94.07
19777;BME280;10047;42.490;26.012;2023-03-29T09:46:43;100669.53;;;10.64;89.59
19777;BME280;10047;42.490;26.012;2023-03-29T09:49:24;100684.25;;;10.45;86.26
19777;BME280;10047;42.490;26.012;2023-03-29T09:51:52;100675.38;;;10.69;84.82
19777;BME280;10047;42.490;26.012;2023-03-29T09:54:19;100633.38;;;10.94;84.95
19777;BME280;10047;42.490;26.012;2023-03-29T09:56:45;100679.59;;;11.58;83.89
19777;BME280;10047;42.490;26.012;2023-03-29T09:59:11;100688.34;;;11.47;80.54
19777;BME280;10047;42.490;26.012;2023-03-29T10:01:39;100643.22;;;10.16;83.11
19777;BME280;10047;42.490;26.012;2023-03-29T10:04:08;100699.53;;;10.42;81.07
19777;BME280;10047;42.490;26.012;2023-03-29T10:06:34;100692.28;;;10.19;85.73
19777;BME280;10047;42.490;26.012;2023-03-29T10:09:01;100690.94;;;9.94;88.39
19777;BME280;10047;42.490;26.012;2023-03-29T10:11:35;100651.38;;;9.78;86.70
19777;BME280;10047;42.490;26.012;2023-03-29T10:14:11;100647.09;;;10.39;87.67
19777;BME280;10047;42.490;26.012;2023-03-29T10:16:42;100648.88;;;11.26;85.63
19777;BME280;10047;42.490;26.012;2023-03-29T10:21:51;100720.72;;;10.42;80.30
19777;BME280;10047;42.490;26.012;2023-03-29T10:24:25;100698.66;;;9.88;83.83
19777;BME280;10047;42.490;26.012;2023-03-29T10:26:52;100619.66;;;8.77;86.68
19777;BME280;10047;42.490;26.012;2023-03-29T10:29:21;100647.47;;;8.82;94.21
19777;BME280;10047;42.490;26.012;2023-03-29T10:31:47;100601.50;;;8.28;100.00
19777;BME280;10047;42.490;26.012;2023-03-29T10:34:14;100677.06;;;8.81;100.00
19777;BME280;10047;42.490;26.012;2023-03-29T10:36:43;100628.22;;;9.98;100.00
19777;BME280;10047;42.490;26.012;2023-03-29T10:39:12;100683.41;;;9.20;93.95
19777;BME280;10047;42.490;26.012;2023-03-29T10:41:39;100618.63;;;8.93;97.23
19777;BME280;10047;42.490;26.012;2023-03-29T10:44:05;100685.44;;;8.89;94.78
19777;BME280;10047;42.490;26.012;2023-03-29T10:46:39;100619.22;;;9.15;94.68
19777;BME280;10047;42.490;26.012;2023-03-29T10:49:05;100664.84;;;10.88;85.66
19777;BME280;10047;42.490;26.012;2023-03-29T10:51:44;100673.81;;;10.07;86.15
19777;BME280;10047;42.490;26.012;2023-03-29T10:54:12;100637.69;;;10.43;83.54
19777;BME280;10047;42.490;26.012;2023-03-29T10:56:55;100603.47;;;9.54;80.97
19777;BME280;10047;42.490;26.012;2023-03-29T11:01:57;100667.88;;;11.50;76.24
19777;BME280;10047;42.490;26.012;2023-03-29T11:04:40;100666.03;;;10.19;72.45
19777;BME280;10047;42.490;26.012;2023-03-29T11:12:24;100661.53;;;9.77;77.58
19777;BME280;10047;42.490;26.012;2023-03-29T11:15:21;100654.72;;;9.79;79.74
19777;BME280;10047;42.490;26.012;2023-03-29T11:20:47;100647.03;;;10.41;79.57
19777;BME280;10047;42.490;26.012;2023-03-29T11:26:03;100652.66;;;10.60;72.87
19777;BME280;10047;42.490;26.012;2023-03-29T11:36:59;100660.97;;;11.15;72.48
19777;BME280;10047;42.490;26.012;2023-03-29T11:39:37;100652.47;;;10.18;74.56
19777;BME280;10047;42.490;26.012;2023-03-29T11:42:13;100638.69;;;11.26;74.17
19777;BME280;10047;42.490;26.012;2023-03-29T11:44:43;100659.44;;;10.59;74.26
19777;BME280;10047;42.490;26.012;2023-03-29T11:47:15;100666.34;;;11.43;68.00
19777;BME280;10047;42.490;26.012;2023-03-29T11:49:50;100673.50;;;11.24;66.59
19777;BME280;10047;42.490;26.012;2023-03-29T11:52:20;100671.38;;;11.01;63.71
19777;BME280;10047;42.490;26.012;2023-03-29T11:54:52;100667.22;;;10.99;64.73
19777;BME280;10047;42.490;26.012;2023-03-29T12:00:28;100668.50;;;11.61;69.38
19777;BME280;10047;42.490;26.012;2023-03-29T12:05:51;100665.25;;;11.13;67.31
19777;BME280;10047;42.490;26.012;2023-03-29T12:08:28;100616.91;;;10.69;66.52
19777;BME280;10047;42.490;26.012;2023-03-29T12:13:30;100646.75;;;10.59;70.31
19777;BME280;10047;42.490;26.012;2023-03-29T12:16:01;100668.66;;;11.12;68.71
19777;BME280;10047;42.490;26.012;2023-03-29T12:18:39;100609.78;;;9.26;68.26
19777;BME280;10047;42.490;26.012;2023-03-29T12:21:12;100652.00;;;10.96;64.79
19777;BME280;10047;42.490;26.012;2023-03-29T12:23:40;100645.00;;;11.05;64.36
19777;BME280;10047;42.490;26.012;2023-03-29T12:37:13;100650.97;;;9.43;67.58
19777;BME280;10047;42.490;26.012;2023-03-29T12:39:43;100653.91;;;9.13;66.02
19777;BME280;10047;42.490;26.012;2023-03-29T12:42:17;100647.50;;;10.12;63.45
19777;BME280;10047;42.490;26.012;2023-03-29T12:45:12;100643.69;;;10.39;64.14
19777;BME280;10047;42.490;26.012;2023-03-29T12:47:43;100600.84;;;10.67;61.60
19777;BME280;10047;42.490;26.012;2023-03-29T12:50:36;100634.78;;;11.50;62.24
19777;BME280;10047;42.490;26.012;2023-03-29T12:58:26;100621.81;;;10.78;62.07
19777;BME280;10047;42.490;26.012;2023-03-29T13:06:49;100646.69;;;10.09;62.61
19777;BME280;10047;42.490;26.012;2023-03-29T13:09:26;100653.13;;;9.73;61.92
19777;BME280;10047;42.490;26.012;2023-03-29T13:12:06;100663.09;;;9.87;65.02
19777;BME280;10047;42.490;26.012;2023-03-29T13:14:35;100612.03;;;9.48;67.59
19777;BME280;10047;42.490;26.012;2023-03-29T13:17:07;100648.00;;;9.78;66.24
19777;BME280;10047;42.490;26.012;2023-03-29T13:25:26;100664.25;;;9.65;66.54
19777;BME280;10047;42.490;26.012;2023-03-29T13:39:14;100646.31;;;10.82;63.30
19777;BME280;10047;42.490;26.012;2023-03-29T13:44:26;100651.88;;;11.43;61.38
19777;BME280;10047;42.490;26.012;2023-03-29T13:47:48;100603.41;;;10.65;60.41
19777;BME280;10047;42.490;26.012;2023-03-29T13:49:52;100654.28;;;11.09;59.62
19777;BME280;10047;42.490;26.012;2023-03-29T13:52:25;100586.84;;;10.89;59.32
19777;BME280;10047;42.490;26.012;2023-03-29T13:55:24;100646.31;;;11.26;57.55
19777;BME280;10047;42.490;26.012;2023-03-29T13:58:10;100642.91;;;11.68;57.06
19777;BME280;10047;42.490;26.012;2023-03-29T14:00:59;100639.63;;;12.35;57.05
19777;BME280;10047;42.490;26.012;2023-03-29T14:03:26;100646.91;;;11.37;56.35
19777;BME280;10047;42.490;26.012;2023-03-29T14:06:01;100608.38;;;11.54;56.51
19777;BME280;10047;42.490;26.012;2023-03-29T14:08:42;100568.84;;;10.98;55.12
19777;BME280;10047;42.490;26.012;2023-03-29T14:13:45;100660.31;;;11.04;56.71
19777;BME280;10047;42.490;26.012;2023-03-29T14:16:11;100658.31;;;11.61;56.58
19777;BME280;10047;42.490;26.012;2023-03-29T14:18:41;100660.63;;;11.31;58.28
19777;BME280;10047;42.490;26.012;2023-03-29T14:21:11;100634.28;;;11.34;57.96
19777;BME280;10047;42.490;26.012;2023-03-29T14:23:38;100663.28;;;10.83;60.59
19777;BME280;10047;42.490;26.012;2023-03-29T14:26:30;100611.13;;;10.10;60.25
19777;BME280;10047;42.490;26.012;2023-03-29T14:28:56;100614.19;;;9.74;59.84
19777;BME280;10047;42.490;26.012;2023-03-29T14:31:30;100659.66;;;9.91;59.80
19777;BME280;10047;42.490;26.012;2023-03-29T14:34:00;100577.88;;;9.69;61.70
19777;BME280;10047;42.490;26.012;2023-03-29T14:36:28;100660.25;;;10.61;67.10
19777;BME280;10047;42.490;26.012;2023-03-29T14:38:57;100620.03;;;10.83;59.20
19777;BME280;10047;42.490;26.012;2023-03-29T14:41:30;100579.53;;;10.72;58.33
19777;BME280;10047;42.490;26.012;2023-03-29T14:43:57;100663.81;;;10.98;58.34
19777;BME280;10047;42.490;26.012;2023-03-29T14:46:23;100574.06;;;9.97;60.38
19777;BME280;10047;42.490;26.012;2023-03-29T14:48:50;100613.66;;;10.09;59.28
19777;BME280;10047;42.490;26.012;2023-03-29T14:51:16;100663.63;;;10.63;58.49